»·PEaware :: UAL50 KIAD-LSZH

UAL50 :: KIAD-LSZH

FLIGHT INFORMATION

Flight Status: Arrived
Operator:
United Airlines
More flights by this operator :: More flights under this callsign
Pilot: Drew L. (13237)
Aircraft: Unknown
(B77W)
More flights by this aircraft type
Origin: KIAD Washington Dulles Intl
United States
Destination: LSZH Zurich
Switzerland
More flights between these airports :: More routes between these airports
Route: JCOBY3 SWANN EBONY/N0484F390 N325A ELSIR/M084F390 NATS MALOT/N0492F410 GISTI LODLA LESLU UM142 INSUN UN160 PIGOP UN491 MELKO UM606 BLM BLM2G
File this flight plan on PilotEdge
Remarks: PBN / A1B1C1D1L1O1S2 DOF / 180415 REG / N713SB EET / KZNY0023 KZBW0031 CZQM0115 CZQX0151 50N050W0237 51N040W0320 EGGX0403 53N020W0447 EISN0508 EGTT0543 LFFF0603 LFEE0703 LSAS0705 OPR / UAL PER / D RALT / CYYT EINN RMK / TCAS SIMBRIEF
Altitude:
(Current/Filed)
35,000ft
Speed:
(Current/Filed)
478kts
Departed: 14-Apr-18 10:54 PM
Arrived: 15-Apr-18 08:45 AM
Distance/Time
Traveled:
3601nm/9:51
Distance/Time
To Go:
Arrived

Flight Plot

Page will automatically refresh every two minutes.

Flight plan parsing failed; only flown route is shown


Map Options




Map Legend


Flown Route
Filed Route
Departure Airport
Arrival Airport
Navaid (VOR, NDB)
Fix

Horizontal Profiles

Position Reports

Time Latitude Longitude Heading Altitude Ground
Speed
14-Apr-18 22:42 38.945914 -77.442392 197 325ft 0kts
14-Apr-18 22:43 38.945914 -77.442392 197 325ft 0kts
14-Apr-18 22:44 38.945914 -77.442392 197 325ft 0kts
14-Apr-18 22:45 38.946251 -77.442316 167 325ft 2kts
14-Apr-18 22:46 38.946587 -77.442746 90 325ft 2kts
14-Apr-18 22:47 38.946589 -77.443045 90 325ft 0kts
14-Apr-18 22:48 38.946589 -77.443045 90 325ft 0kts
14-Apr-18 22:49 38.946699 -77.442388 84 325ft 11kts
14-Apr-18 22:50 38.947992 -77.439701 1 325ft 21kts
14-Apr-18 22:51 38.954820 -77.439210 71 325ft 14kts
14-Apr-18 22:52 38.953702 -77.435953 180 325ft 25kts
14-Apr-18 22:53 38.917563 -77.437118 182 1230ft 187kts
14-Apr-18 22:54 38.883973 -77.401120 87 4227ft 219kts
14-Apr-18 22:55 38.921575 -77.324994 54 5703ft 296kts
14-Apr-18 22:56 38.970655 -77.237017 55 9004ft 300kts
14-Apr-18 22:57 39.021588 -77.144559 55 10998ft 343kts
14-Apr-18 22:58 39.081430 -77.033841 61 12449ft 406kts
14-Apr-18 22:59 39.107802 -76.889868 86 14909ft 422kts
14-Apr-18 23:00 39.113749 -76.735446 91 17177ft 443kts
14-Apr-18 23:01 39.117271 -76.572603 91 19301ft 462kts
14-Apr-18 23:02 39.131636 -76.405021 83 21400ft 480kts
14-Apr-18 23:03 39.160639 -76.235002 64 23166ft 500kts
14-Apr-18 23:04 39.247613 -76.092978 44 24977ft 511kts
14-Apr-18 23:05 39.347123 -75.959889 45 26788ft 520kts
14-Apr-18 23:06 39.447712 -75.822431 45 28424ft 529kts
14-Apr-18 23:07 39.549259 -75.682532 46 29887ft 537kts
14-Apr-18 23:08 39.650241 -75.542320 46 31786ft 528kts
14-Apr-18 23:09 39.750002 -75.403132 46 33359ft 522kts
14-Apr-18 23:10 39.848116 -75.265608 45 34695ft 516kts
14-Apr-18 23:11 39.945238 -75.128868 45 35195ft 514kts
14-Apr-18 23:12 40.042458 -74.991371 45 35217ft 516kts
14-Apr-18 23:13 40.139821 -74.853045 45 35214ft 518kts
14-Apr-18 23:14 40.237088 -74.714224 45 35208ft 518kts
14-Apr-18 23:15 40.334493 -74.574566 45 35219ft 518kts
14-Apr-18 23:16 40.431287 -74.435142 46 35247ft 517kts
14-Apr-18 23:17 40.511843 -74.318617 46 35272ft 518kts
14-Apr-18 23:18 40.608836 -74.177716 46 35279ft 518kts
14-Apr-18 23:19 40.721345 -74.013450 46 35294ft 519kts
14-Apr-18 23:20 40.818223 -73.871280 46 35294ft 520kts
14-Apr-18 23:21 40.914755 -73.728952 46 35290ft 521kts
14-Apr-18 23:22 40.995141 -73.609913 46 35292ft 522kts
14-Apr-18 23:23 41.091911 -73.465982 46 35299ft 522kts
14-Apr-18 23:24 41.188359 -73.321843 46 35316ft 523kts
14-Apr-18 23:25 41.284782 -73.177044 46 35318ft 524kts
14-Apr-18 23:26 41.381454 -73.031165 46 35321ft 524kts
14-Apr-18 23:27 41.477577 -72.885405 46 35339ft 524kts
14-Apr-18 23:28 41.573920 -72.738595 46 35351ft 525kts
14-Apr-18 23:29 41.669753 -72.591841 46 35373ft 525kts
14-Apr-18 23:30 41.765684 -72.444211 46 35380ft 526kts
14-Apr-18 23:31 41.861769 -72.295609 46 35386ft 526kts
14-Apr-18 23:32 41.957421 -72.146933 46 35386ft 527kts
14-Apr-18 23:33 42.052965 -71.997680 46 35387ft 527kts
14-Apr-18 23:34 42.148633 -71.847475 46 35386ft 527kts
14-Apr-18 23:35 42.243852 -71.697214 46 35387ft 528kts
14-Apr-18 23:36 42.339382 -71.545688 46 35419ft 529kts
14-Apr-18 23:37 42.434709 -71.393716 45 35445ft 531kts
14-Apr-18 23:38 42.529993 -71.241024 45 35453ft 531kts
14-Apr-18 23:39 42.625501 -71.087175 45 35479ft 532kts
14-Apr-18 23:40 42.720673 -70.933064 45 35483ft 533kts
14-Apr-18 23:41 42.815730 -70.778329 45 35480ft 534kts
14-Apr-18 23:42 42.911010 -70.622410 45 35479ft 534kts
14-Apr-18 23:43 43.005916 -70.466275 45 35481ft 535kts
14-Apr-18 23:44 43.101061 -70.308907 45 35492ft 536kts
14-Apr-18 23:45 43.195967 -70.151087 45 35501ft 538kts
14-Apr-18 23:46 43.291036 -69.992141 45 35509ft 541kts
14-Apr-18 23:47 43.386486 -69.831677 45 35518ft 541kts
14-Apr-18 23:48 43.481395 -69.671254 45 35529ft 542kts
14-Apr-18 23:49 43.576235 -69.510055 45 35533ft 542kts
14-Apr-18 23:50 43.671148 -69.347834 45 35533ft 542kts
14-Apr-18 23:51 43.765562 -69.185558 45 35532ft 542kts
14-Apr-18 23:52 43.859672 -69.022904 45 35530ft 542kts
14-Apr-18 23:53 43.953937 -68.859059 45 35530ft 542kts
14-Apr-18 23:54 44.047739 -68.695048 44 35532ft 546kts
14-Apr-18 23:55 44.142420 -68.528645 44 35537ft 547kts
14-Apr-18 23:56 44.236462 -68.362371 44 35539ft 547kts
14-Apr-18 23:57 44.330159 -68.195744 44 35538ft 546kts
14-Apr-18 23:58 44.423977 -68.027930 44 35538ft 547kts
14-Apr-18 23:59 44.517290 -67.860039 44 35541ft 547kts
15-Apr-18 00:00 44.610423 -67.691499 44 35540ft 548kts
15-Apr-18 00:01 44.703977 -67.521198 43 35539ft 551kts
15-Apr-18 00:02 44.797343 -67.350863 43 35546ft 551kts
15-Apr-18 00:03 44.890520 -67.178611 43 35544ft 552kts
15-Apr-18 00:04 44.971099 -66.990485 54 35543ft 567kts
15-Apr-18 00:05 45.045519 -66.795567 53 35539ft 564kts
15-Apr-18 00:06 45.122483 -66.601203 52 35538ft 566kts
15-Apr-18 00:07 45.199026 -66.406567 52 35520ft 567kts
15-Apr-18 00:08 45.275332 -66.210409 52 35515ft 569kts
15-Apr-18 00:09 45.351608 -66.012867 52 35510ft 570kts
15-Apr-18 00:10 45.427452 -65.815015 52 35510ft 570kts
15-Apr-18 00:11 45.503013 -65.616479 52 35512ft 571kts
15-Apr-18 00:12 45.578485 -65.416727 52 35513ft 571kts
15-Apr-18 00:13 45.653369 -65.217078 53 35511ft 570kts
15-Apr-18 00:14 45.728109 -65.016343 53 35508ft 571kts
15-Apr-18 00:15 45.802362 -64.815433 53 35501ft 572kts
15-Apr-18 00:16 45.876473 -64.613416 53 35497ft 574kts
15-Apr-18 00:17 45.950567 -64.409920 53 35515ft 573kts
15-Apr-18 00:18 46.024203 -64.206147 53 35512ft 576kts
15-Apr-18 00:19 46.097700 -64.001212 53 35505ft 577kts
15-Apr-18 00:20 46.171102 -63.794957 53 35495ft 577kts
15-Apr-18 00:21 46.243975 -63.588594 53 35487ft 578kts
15-Apr-18 00:22 46.316742 -63.380913 53 35478ft 577kts
15-Apr-18 00:23 46.388721 -63.173888 52 35478ft 576kts
15-Apr-18 00:24 46.460247 -62.966545 52 35473ft 575kts
15-Apr-18 00:25 46.531528 -62.758272 52 35456ft 574kts
15-Apr-18 00:26 46.602139 -62.550309 52 35430ft 575kts
15-Apr-18 00:27 46.672493 -62.341446 52 35396ft 575kts
15-Apr-18 00:28 46.742721 -62.131273 53 35361ft 576kts
15-Apr-18 00:29 46.812446 -61.920882 52 35329ft 576kts
15-Apr-18 00:30 46.881849 -61.709798 52 35298ft 575kts
15-Apr-18 00:31 46.950696 -61.498651 52 35283ft 576kts
15-Apr-18 00:32 47.019097 -61.287160 52 35268ft 576kts
15-Apr-18 00:33 47.087488 -61.073926 52 35269ft 577kts
15-Apr-18 00:34 47.155371 -60.860494 52 35274ft 578kts
15-Apr-18 00:35 47.223018 -60.646008 52 35279ft 580kts
15-Apr-18 00:36 47.290582 -60.429929 52 35282ft 580kts
15-Apr-18 00:37 47.357520 -60.214046 52 35283ft 580kts
15-Apr-18 00:38 47.424220 -59.997048 52 35278ft 582kts
15-Apr-18 00:39 47.490723 -59.778799 52 35264ft 580kts
15-Apr-18 00:40 47.556569 -59.560807 52 35253ft 581kts
15-Apr-18 00:41 47.622188 -59.341640 53 35243ft 581kts
15-Apr-18 00:42 47.687148 -59.122729 53 35234ft 581kts
15-Apr-18 00:43 47.751705 -58.903230 53 35226ft 580kts
15-Apr-18 00:44 47.816064 -58.682422 53 35221ft 581kts
15-Apr-18 00:45 47.879911 -58.461385 54 35197ft 583kts
15-Apr-18 00:46 47.943901 -58.237783 54 35192ft 585kts
15-Apr-18 00:47 48.007288 -58.014238 54 35187ft 586kts
15-Apr-18 00:48 48.070349 -57.789762 54 35181ft 587kts
15-Apr-18 00:49 48.133152 -57.564089 55 35172ft 586kts
15-Apr-18 00:50 48.195067 -57.339494 55 35134ft 583kts
15-Apr-18 00:51 48.256530 -57.114380 56 35069ft 584kts
15-Apr-18 00:52 48.317747 -56.888022 56 35060ft 584kts
15-Apr-18 00:53 48.378526 -56.661067 56 35049ft 587kts
15-Apr-18 00:54 48.439010 -56.433017 56 35034ft 588kts
15-Apr-18 00:55 48.499468 -56.202801 57 35013ft 591kts
15-Apr-18 00:56 48.559529 -55.971781 57 34957ft 590kts
15-Apr-18 00:57 48.619076 -55.740446 58 34928ft 589kts
15-Apr-18 00:58 48.677766 -55.510092 58 34898ft 587kts
15-Apr-18 00:59 48.735789 -55.280029 59 34871ft 584kts
15-Apr-18 01:00 48.793277 -55.049721 59 34849ft 582kts
15-Apr-18 01:01 48.850031 -54.820017 60 34835ft 581kts
15-Apr-18 01:02 48.906196 -54.590327 60 34830ft 580kts
15-Apr-18 01:03 48.962025 -54.359637 60 34829ft 579kts
15-Apr-18 01:04 49.017060 -54.129813 61 34829ft 577kts
15-Apr-18 01:05 49.071545 -53.899945 61 34828ft 574kts
15-Apr-18 01:06 49.125168 -53.671205 62 34826ft 571kts
15-Apr-18 01:07 49.178125 -53.442939 62 34825ft 570kts
15-Apr-18 01:08 49.230727 -53.213764 62 34810ft 569kts
15-Apr-18 01:09 49.282635 -52.985180 63 34805ft 569kts
15-Apr-18 01:10 49.333983 -52.756593 63 34787ft 567kts
15-Apr-18 01:11 49.384878 -52.527551 64 34766ft 565kts
15-Apr-18 01:12 49.435414 -52.300093 65 34767ft 562kts
15-Apr-18 01:13 49.484474 -52.072236 65 34768ft 558kts
15-Apr-18 01:14 49.538682 -51.850790 59 34769ft 550kts
15-Apr-18 01:15 49.598598 -51.634038 60 34771ft 551kts
15-Apr-18 01:16 49.657848 -51.414992 60 34773ft 553kts
15-Apr-18 01:17 49.716978 -51.196018 61 34830ft 554kts
15-Apr-18 01:18 49.775323 -50.975393 61 34837ft 555kts
15-Apr-18 01:19 49.833281 -50.753859 61 34840ft 553kts
15-Apr-18 01:20 49.890424 -50.533282 62 34840ft 551kts
15-Apr-18 01:21 49.947133 -50.312235 62 34841ft 549kts
15-Apr-18 01:22 50.002988 -50.092381 63 34842ft 547kts
15-Apr-18 01:23 50.058325 -49.872416 63 34844ft 547kts
15-Apr-18 01:24 50.113387 -49.651380 63 34845ft 546kts
15-Apr-18 01:25 50.167716 -49.431114 64 34847ft 544kts
15-Apr-18 01:26 50.221429 -49.211168 64 34846ft 542kts
15-Apr-18 01:27 50.274782 -48.990482 65 34830ft 541kts
15-Apr-18 01:28 50.327492 -48.770247 65 34833ft 541kts
15-Apr-18 01:29 50.380045 -48.548424 65 34833ft 542kts
15-Apr-18 01:30 50.432078 -48.326531 66 34834ft 543kts
15-Apr-18 01:31 50.483740 -48.103927 66 34836ft 544kts
15-Apr-18 01:32 50.535009 -47.880714 66 34846ft 537kts
15-Apr-18 01:33 50.585009 -47.660714 66 34845ft 534kts
15-Apr-18 01:34 50.634468 -47.440815 66 34846ft 532kts
15-Apr-18 01:35 50.675384 -47.257226 67 34846ft 530kts
15-Apr-18 01:36 50.723768 -47.037838 67 34848ft 530kts
15-Apr-18 01:37 50.771665 -46.818404 67 34849ft 529kts
15-Apr-18 01:38 50.819304 -46.597874 68 34849ft 529kts
15-Apr-18 01:39 50.874147 -46.340881 68 34851ft 529kts
15-Apr-18 01:40 50.913122 -46.156505 68 34850ft 528kts
15-Apr-18 01:41 50.959238 -45.935730 69 34852ft 528kts
15-Apr-18 01:42 51.004823 -45.715157 69 34853ft 526kts
15-Apr-18 01:43 51.050092 -45.493714 69 34854ft 525kts
15-Apr-18 01:44 51.094725 -45.272938 70 34827ft 524kts
15-Apr-18 01:45 51.138878 -45.052074 70 34828ft 525kts
15-Apr-18 01:46 51.182750 -44.830138 71 34829ft 524kts
15-Apr-18 01:47 51.225985 -44.608754 71 34831ft 523kts
15-Apr-18 01:48 51.268866 -44.386687 71 34832ft 521kts
15-Apr-18 01:49 51.311062 -44.165609 72 34833ft 520kts
15-Apr-18 01:50 51.352717 -43.944851 72 34834ft 519kts
15-Apr-18 01:51 51.394015 -43.723291 72 34832ft 517kts
15-Apr-18 01:52 51.434730 -43.502238 72 35771ft 518kts
15-Apr-18 01:53 51.475054 -43.280696 73 36758ft 519kts
15-Apr-18 01:54 51.515171 -43.057504 73 36839ft 519kts
15-Apr-18 01:55 51.554707 -42.834893 73 36840ft 519kts
15-Apr-18 01:56 51.593960 -42.611035 74 36841ft 518kts
15-Apr-18 01:57 51.632536 -42.388273 74 36843ft 517kts
15-Apr-18 01:58 51.670590 -42.165728 74 36843ft 515kts
15-Apr-18 01:59 51.708242 -41.942699 75 36844ft 514kts
15-Apr-18 02:00 51.745333 -41.720124 75 36845ft 514kts
15-Apr-18 02:01 51.782050 -41.496904 75 36846ft 516kts
15-Apr-18 02:02 51.818548 -41.272057 75 36847ft 517kts
15-Apr-18 02:03 51.854612 -41.046872 76 36848ft 518kts
15-Apr-18 02:04 51.890264 -40.821214 76 36849ft 518kts
15-Apr-18 02:05 51.925604 -40.594418 76 36850ft 517kts
15-Apr-18 02:06 51.960280 -40.368760 77 36851ft 516kts
15-Apr-18 02:07 51.994462 -40.143167 77 36852ft 515kts
15-Apr-18 02:08 52.028287 -39.916722 77 36853ft 515kts
15-Apr-18 02:09 52.061567 -39.690737 78 36853ft 515kts
15-Apr-18 02:10 52.094468 -39.463973 78 36854ft 514kts
15-Apr-18 02:11 52.126767 -39.238072 78 36855ft 513kts
15-Apr-18 02:12 52.158573 -39.012284 78 36856ft 512kts
15-Apr-18 02:13 52.190031 -38.785574 79 36857ft 512kts
15-Apr-18 02:14 52.220992 -38.559002 79 36857ft 513kts
15-Apr-18 02:15 52.251572 -38.331706 79 36858ft 514kts
15-Apr-18 02:16 52.281874 -38.102889 79 36859ft 514kts
15-Apr-18 02:17 52.311632 -37.874551 80 36860ft 515kts
15-Apr-18 02:18 52.341065 -37.644996 80 36861ft 514kts
15-Apr-18 02:19 52.369873 -37.416576 80 36862ft 513kts
15-Apr-18 02:20 52.398209 -37.188115 80 36862ft 512kts
15-Apr-18 02:21 52.426184 -36.958694 81 36859ft 512kts
15-Apr-18 02:22 52.453610 -36.729858 81 36859ft 512kts
15-Apr-18 02:23 52.480658 -36.500397 81 36861ft 513kts
15-Apr-18 02:24 52.507358 -36.269429 81 36860ft 515kts
15-Apr-18 02:25 52.533575 -36.038783 81 36859ft 514kts
15-Apr-18 02:26 52.559407 -35.807027 82 36860ft 515kts
15-Apr-18 02:27 52.584734 -35.575597 82 36860ft 515kts
15-Apr-18 02:28 52.609569 -35.344294 82 36860ft 514kts
15-Apr-18 02:29 52.634021 -35.112085 82 36860ft 514kts
15-Apr-18 02:30 52.657936 -34.880591 82 36861ft 513kts
15-Apr-18 02:31 52.681412 -34.648420 83 36860ft 514kts
15-Apr-18 02:32 52.704547 -34.414951 83 36860ft 515kts
15-Apr-18 02:33 52.727192 -34.181594 83 36861ft 516kts
15-Apr-18 02:34 52.749388 -33.947886 83 36861ft 516kts
15-Apr-18 02:35 52.771219 -33.712926 84 36861ft 517kts
15-Apr-18 02:36 52.792479 -33.478907 84 36861ft 515kts
15-Apr-18 02:37 52.813325 -33.244231 84 36860ft 515kts
15-Apr-18 02:38 52.833637 -33.009965 84 36860ft 515kts
15-Apr-18 02:39 52.853526 -32.775618 84 36865ft 514kts
15-Apr-18 02:40 52.872943 -32.540219 84 36860ft 515kts
15-Apr-18 02:41 52.891871 -32.305304 85 36860ft 515kts
15-Apr-18 02:42 52.910351 -32.070017 85 36860ft 516kts
15-Apr-18 02:43 52.928417 -31.833885 85 36860ft 516kts
15-Apr-18 02:44 52.945953 -31.598386 85 36859ft 515kts
15-Apr-18 02:45 52.963068 -31.362088 85 36859ft 515kts
15-Apr-18 02:46 52.979637 -31.126703 85 36859ft 514kts
15-Apr-18 02:47 52.995745 -30.891086 85 36943ft 515kts
15-Apr-18 02:48 53.011435 -30.654551 85 36942ft 514kts
15-Apr-18 02:49 53.026597 -30.418773 85 36942ft 514kts
15-Apr-18 02:50 53.041285 -30.182928 85 36942ft 514kts
15-Apr-18 02:51 53.055538 -29.946348 85 36942ft 513kts
15-Apr-18 02:52 53.069281 -29.710463 85 36941ft 513kts
15-Apr-18 02:53 53.082545 -29.474590 86 36941ft 512kts
15-Apr-18 02:54 53.095375 -29.237952 86 36940ft 512kts
15-Apr-18 02:55 53.107677 -29.002320 86 36940ft 512kts
15-Apr-18 02:56 53.119556 -28.765670 86 36940ft 512kts
15-Apr-18 02:57 53.130909 -28.530101 86 36939ft 510kts
15-Apr-18 02:58 53.141781 -28.294764 86 36939ft 510kts
15-Apr-18 02:59 53.152208 -28.058885 86 36938ft 509kts
15-Apr-18 03:00 53.162127 -27.823888 87 36938ft 507kts
15-Apr-18 03:01 53.171554 -27.589538 87 36937ft 508kts
15-Apr-18 03:02 53.180558 -27.354071 87 36937ft 507kts
15-Apr-18 03:03 53.189057 -27.119694 87 36936ft 507kts
15-Apr-18 03:04 53.197095 -26.885228 87 36932ft 506kts
15-Apr-18 03:05 53.204676 -26.650563 87 36955ft 505kts
15-Apr-18 03:06 53.211762 -26.416974 88 36955ft 504kts
15-Apr-18 03:07 53.218396 -26.183188 88 36955ft 503kts
15-Apr-18 03:08 53.224541 -25.950496 88 36954ft 502kts
15-Apr-18 03:09 53.230218 -25.718397 88 36954ft 501kts
15-Apr-18 03:10 53.235457 -25.485603 88 36949ft 501kts
15-Apr-18 03:11 53.240230 -25.253428 88 36945ft 501kts
15-Apr-18 03:12 53.244563 -25.020539 89 36723ft 500kts
15-Apr-18 03:13 53.248423 -24.788868 89 36701ft 499kts
15-Apr-18 03:14 53.251841 -24.556616 89 36697ft 499kts
15-Apr-18 03:15 53.254794 -24.325454 89 36693ft 498kts
15-Apr-18 03:16 53.257295 -24.094729 90 36690ft 497kts
15-Apr-18 03:17 53.259354 -23.863699 90 36687ft 495kts
15-Apr-18 03:18 53.260958 -23.633917 90 36683ft 495kts
15-Apr-18 03:19 53.262120 -23.404061 90 36679ft 495kts
15-Apr-18 03:20 53.262842 -23.173526 90 36675ft 495kts
15-Apr-18 03:21 53.263119 -22.943816 90 36679ft 495kts
15-Apr-18 03:22 53.262954 -22.714208 91 36675ft 494kts
15-Apr-18 03:23 53.262348 -22.484353 91 36668ft 493kts
15-Apr-18 03:24 53.261307 -22.255744 91 36664ft 492kts
15-Apr-18 03:25 53.259825 -22.026619 91 36660ft 492kts
15-Apr-18 03:26 53.257914 -21.798688 91 36655ft 491kts
15-Apr-18 03:27 53.255571 -21.570920 91 36651ft 491kts
15-Apr-18 03:28 53.252781 -21.342276 92 36647ft 492kts
15-Apr-18 03:29 53.249564 -21.114352 92 36642ft 492kts
15-Apr-18 03:30 53.245914 -20.886536 92 36637ft 491kts
15-Apr-18 03:31 53.241820 -20.658213 92 36632ft 491kts
15-Apr-18 03:32 53.237309 -20.430896 92 36627ft 490kts
15-Apr-18 03:33 53.232357 -20.203195 92 36592ft 490kts
15-Apr-18 03:34 53.226995 -19.976532 93 36551ft 489kts
15-Apr-18 03:35 53.221207 -19.750096 93 36546ft 488kts
15-Apr-18 03:36 53.214971 -19.523063 93 36544ft 489kts
15-Apr-18 03:37 53.208325 -19.296782 93 36540ft 489kts
15-Apr-18 03:38 53.201253 -19.070633 93 36536ft 489kts
15-Apr-18 03:39 53.193729 -18.843888 93 36533ft 488kts
15-Apr-18 03:40 53.185809 -18.618146 94 36529ft 488kts
15-Apr-18 03:41 53.177472 -18.392759 94 36526ft 487kts
15-Apr-18 03:42 53.168687 -18.166878 94 36522ft 487kts
15-Apr-18 03:43 53.159516 -17.942047 94 36518ft 487kts
15-Apr-18 03:44 53.149899 -17.716838 95 36515ft 486kts
15-Apr-18 03:45 53.139892 -17.492454 95 36511ft 486kts
15-Apr-18 03:46 53.129458 -17.268071 95 36508ft 486kts
15-Apr-18 03:47 53.118564 -17.042994 95 36493ft 486kts
15-Apr-18 03:48 53.107293 -16.818988 95 36489ft 486kts
15-Apr-18 03:49 53.095607 -16.595175 95 36486ft 486kts
15-Apr-18 03:50 53.083475 -16.370984 96 36483ft 485kts
15-Apr-18 03:51 53.070967 -16.147711 96 36480ft 485kts
15-Apr-18 03:52 53.060229 -15.961786 96 36477ft 485kts
15-Apr-18 03:53 53.046928 -15.738256 97 36474ft 485kts
15-Apr-18 03:54 53.033347 -15.515697 96 36472ft 485kts
15-Apr-18 03:55 53.019620 -15.292379 97 36468ft 485kts
15-Apr-18 03:56 53.002234 -15.033221 97 36473ft 484kts
15-Apr-18 03:57 52.998836 -14.846821 90 36470ft 486kts
15-Apr-18 03:58 53.000347 -14.622011 91 36467ft 486kts
15-Apr-18 03:59 53.001586 -14.398094 91 36464ft 485kts
15-Apr-18 04:00 53.000805 -14.174263 92 36461ft 485kts
15-Apr-18 04:01 52.989180 -13.952360 110 36459ft 480kts
15-Apr-18 04:02 52.930967 -13.754667 118 36456ft 478kts
15-Apr-18 04:03 52.871786 -13.557734 117 36453ft 479kts
15-Apr-18 04:04 52.814224 -13.358508 117 36450ft 479kts
15-Apr-18 04:05 52.756487 -13.160476 117 36448ft 479kts
15-Apr-18 04:06 52.697909 -12.962562 117 36446ft 479kts
15-Apr-18 04:07 52.639202 -12.765998 118 36444ft 479kts
15-Apr-18 04:08 52.580139 -12.569867 118 36442ft 479kts
15-Apr-18 04:09 52.520501 -12.373444 118 36439ft 480kts
15-Apr-18 04:10 52.460599 -12.177751 118 36437ft 481kts
15-Apr-18 04:11 52.400297 -11.982337 118 36435ft 481kts
15-Apr-18 04:12 52.339443 -11.786715 119 36433ft 481kts
15-Apr-18 04:13 52.278492 -11.592343 119 36431ft 481kts
15-Apr-18 04:14 52.217130 -11.398208 119 36428ft 479kts
15-Apr-18 04:15 52.155831 -11.205800 119 36431ft 478kts
15-Apr-18 04:16 52.094304 -11.014168 119 36429ft 478kts
15-Apr-18 04:17 52.032773 -10.822244 120 36427ft 479kts
15-Apr-18 04:18 51.969816 -10.630511 120 36425ft 484kts
15-Apr-18 04:19 51.905178 -10.438968 122 36423ft 484kts
15-Apr-18 04:20 51.837304 -10.250840 122 36421ft 482kts
15-Apr-18 04:21 51.769765 -10.063832 122 36420ft 482kts
15-Apr-18 04:22 51.702964 -9.875538 122 36421ft 482kts
15-Apr-18 04:23 51.635508 -9.688989 122 36424ft 483kts
15-Apr-18 04:24 51.567572 -9.502995 123 36431ft 483kts
15-Apr-18 04:25 51.498964 -9.316578 123 36467ft 484kts
15-Apr-18 04:26 51.430203 -9.131110 123 36477ft 484kts
15-Apr-18 04:27 51.361150 -8.946191 123 36486ft 484kts
15-Apr-18 04:28 51.291600 -8.761281 123 36495ft 484kts
15-Apr-18 04:29 51.222027 -8.577629 123 36504ft 484kts
15-Apr-18 04:30 51.152368 -8.394125 123 36550ft 484kts
15-Apr-18 04:31 51.081986 -8.210866 124 36571ft 484kts
15-Apr-18 04:32 51.011207 -8.028836 124 36593ft 485kts
15-Apr-18 04:33 50.943986 -7.842358 121 36618ft 486kts
15-Apr-18 04:34 50.878050 -7.655485 122 36647ft 487kts
15-Apr-18 04:35 50.811860 -7.468899 121 36679ft 487kts
15-Apr-18 04:36 50.745630 -7.281720 122 36716ft 487kts
15-Apr-18 04:37 50.678815 -7.096098 122 36754ft 487kts
15-Apr-18 04:38 50.611670 -6.911018 122 36844ft 487kts
15-Apr-18 04:39 50.544181 -6.725565 122 36861ft 487kts
15-Apr-18 04:40 50.476487 -6.541322 123 36880ft 488kts
15-Apr-18 04:41 50.408016 -6.357532 123 36862ft 489kts
15-Apr-18 04:42 50.339030 -6.173408 123 36827ft 489kts
15-Apr-18 04:43 50.270524 -5.989509 123 36816ft 490kts
15-Apr-18 04:44 50.200947 -5.806032 123 36787ft 490kts
15-Apr-18 04:45 50.131250 -5.623980 124 36747ft 489kts
15-Apr-18 04:46 50.058044 -5.446326 125 36714ft 487kts
15-Apr-18 04:47 49.984442 -5.268984 125 36702ft 487kts
15-Apr-18 04:48 49.911192 -5.091103 125 36706ft 491kts
15-Apr-18 04:49 49.837776 -4.913325 126 36706ft 490kts
15-Apr-18 04:50 49.763079 -4.736548 126 36715ft 489kts
15-Apr-18 04:51 49.688831 -4.560777 126 36726ft 488kts
15-Apr-18 04:52 49.613941 -4.385514 126 36743ft 488kts
15-Apr-18 04:53 49.565840 -4.188775 105 36764ft 499kts
15-Apr-18 04:54 49.536036 -3.980527 106 36778ft 498kts
15-Apr-18 04:55 49.503765 -3.772822 106 36787ft 498kts
15-Apr-18 04:56 49.472117 -3.565483 106 36792ft 498kts
15-Apr-18 04:57 49.439293 -3.358492 107 36805ft 499kts
15-Apr-18 04:58 49.405887 -3.150880 107 36813ft 500kts
15-Apr-18 04:59 49.372186 -2.944056 107 36815ft 500kts
15-Apr-18 05:00 49.338144 -2.737663 107 36816ft 499kts
15-Apr-18 05:01 49.303671 -2.531148 107 36815ft 499kts
15-Apr-18 05:02 49.269438 -2.325743 108 36815ft 498kts
15-Apr-18 05:03 49.233931 -2.120313 108 36816ft 498kts
15-Apr-18 05:04 49.215153 -1.909492 94 36819ft 505kts
15-Apr-18 05:05 49.211584 -1.695054 95 36822ft 504kts
15-Apr-18 05:06 49.205674 -1.480093 94 36828ft 506kts
15-Apr-18 05:07 49.200247 -1.265659 95 36844ft 505kts
15-Apr-18 05:08 49.193661 -1.051182 95 36853ft 506kts
15-Apr-18 05:09 49.187180 -0.835695 95 36864ft 506kts
15-Apr-18 05:10 49.179390 -0.620976 96 36873ft 507kts
15-Apr-18 05:11 49.162159 -0.408695 112 36875ft 497kts
15-Apr-18 05:12 49.107794 -0.215584 116 36880ft 496kts
15-Apr-18 05:13 49.055528 -0.021120 116 36890ft 496kts
15-Apr-18 05:14 49.002894 0.172463 116 36901ft 490kts
15-Apr-18 05:15 48.951707 0.365039 116 36922ft 492kts
15-Apr-18 05:16 48.898843 0.556473 117 36929ft 491kts
15-Apr-18 05:17 48.845746 0.748290 116 36931ft 492kts
15-Apr-18 05:18 48.794480 0.940361 115 36934ft 492kts
15-Apr-18 05:19 48.742663 1.131962 116 36935ft 492kts
15-Apr-18 05:20 48.690364 1.323743 113 36938ft 493kts
15-Apr-18 05:21 48.660728 1.528061 105 36943ft 498kts
15-Apr-18 05:22 48.632546 1.733845 105 36941ft 499kts
15-Apr-18 05:23 48.604501 1.939038 106 36937ft 499kts
15-Apr-18 05:24 48.575483 2.143520 106 36936ft 498kts
15-Apr-18 05:25 48.564137 2.353966 94 36932ft 504kts
15-Apr-18 05:26 48.558190 2.564750 96 36956ft 503kts
15-Apr-18 05:27 48.551404 2.775261 96 36964ft 502kts
15-Apr-18 05:28 48.544089 2.985970 96 36964ft 501kts
15-Apr-18 05:29 48.536375 3.195505 97 36964ft 500kts
15-Apr-18 05:30 48.529300 3.405678 96 36964ft 500kts
15-Apr-18 05:31 48.521910 3.614772 96 36964ft 499kts
15-Apr-18 05:32 48.513314 3.823534 97 36964ft 499kts
15-Apr-18 05:33 48.499710 4.031751 108 36964ft 493kts
15-Apr-18 05:34 48.439564 4.212644 123 36964ft 483kts
15-Apr-18 05:35 48.377185 4.391894 121 36964ft 484kts
15-Apr-18 05:36 48.314186 4.571115 121 36964ft 484kts
15-Apr-18 05:37 48.251312 4.749309 121 36964ft 484kts
15-Apr-18 05:38 48.188558 4.927522 121 36966ft 484kts
15-Apr-18 05:39 48.124736 5.105435 121 36971ft 484kts
15-Apr-18 05:40 48.077926 5.294855 107 36972ft 491kts
15-Apr-18 05:41 48.041213 5.490766 109 36965ft 490kts
15-Apr-18 05:42 48.003029 5.686358 108 36968ft 489kts
15-Apr-18 05:43 47.986054 5.772728 108 36967ft 490kts
15-Apr-18 05:44 47.986054 5.772728 108 36967ft 490kts
15-Apr-18 05:45 47.986054 5.772728 108 36967ft 490kts
15-Apr-18 05:46 47.986054 5.772728 108 36967ft 490kts
15-Apr-18 05:47 47.986054 5.772728 108 36967ft 490kts
15-Apr-18 05:48 47.986054 5.772728 108 36967ft 490kts
15-Apr-18 05:49 47.986054 5.772728 108 36967ft 490kts
15-Apr-18 05:50 47.986054 5.772728 108 36967ft 490kts
15-Apr-18 05:51 47.986054 5.772728 108 36967ft 490kts
15-Apr-18 05:52 47.986054 5.772728 108 36967ft 490kts
15-Apr-18 05:53 47.986054 5.772728 108 36967ft 490kts
15-Apr-18 05:54 47.986054 5.772728 108 36967ft 490kts
15-Apr-18 05:55 47.986054 5.772728 108 36967ft 490kts
15-Apr-18 05:56 47.986054 5.772728 108 36967ft 490kts
15-Apr-18 05:57 47.986054 5.772728 108 36967ft 490kts
15-Apr-18 05:58 47.986054 5.772728 108 36967ft 490kts
15-Apr-18 05:59 47.986054 5.772728 108 36967ft 490kts
15-Apr-18 06:00 47.986054 5.772728 108 36967ft 490kts
15-Apr-18 06:01 47.986054 5.772728 108 36967ft 490kts
15-Apr-18 06:02 47.986054 5.772728 108 36967ft 490kts
15-Apr-18 06:03 47.986054 5.772728 108 36967ft 490kts
15-Apr-18 06:04 47.986054 5.772728 108 36967ft 490kts
15-Apr-18 06:05 47.986054 5.772728 108 36967ft 490kts
15-Apr-18 06:06 47.986054 5.772728 108 36967ft 490kts
15-Apr-18 06:07 47.986054 5.772728 108 36967ft 490kts
15-Apr-18 06:08 47.986054 5.772728 108 36967ft 490kts
15-Apr-18 06:09 47.986054 5.772728 108 36967ft 490kts
15-Apr-18 06:10 47.986054 5.772728 108 36967ft 490kts
15-Apr-18 06:11 47.986054 5.772728 108 36967ft 490kts
15-Apr-18 06:12 47.986054 5.772728 108 36967ft 490kts
15-Apr-18 06:13 47.986054 5.772728 108 36967ft 490kts
15-Apr-18 06:14 47.986054 5.772728 108 36967ft 490kts
15-Apr-18 06:15 47.986054 5.772728 108 36967ft 490kts
15-Apr-18 06:16 47.986054 5.772728 108 36967ft 490kts
15-Apr-18 06:17 47.986054 5.772728 108 36967ft 490kts
15-Apr-18 06:18 47.986054 5.772728 108 36967ft 490kts
15-Apr-18 06:19 47.986054 5.772728 108 36967ft 490kts
15-Apr-18 06:20 47.986054 5.772728 108 36967ft 490kts
15-Apr-18 06:21 47.986054 5.772728 108 36967ft 490kts
15-Apr-18 06:22 47.986054 5.772728 108 36967ft 490kts
15-Apr-18 06:23 47.986054 5.772728 108 36967ft 490kts
15-Apr-18 06:24 47.986054 5.772728 108 36967ft 490kts
15-Apr-18 06:25 47.986054 5.772728 108 36967ft 490kts
15-Apr-18 06:26 47.986054 5.772728 108 36967ft 490kts
15-Apr-18 06:27 47.986054 5.772728 108 36967ft 490kts
15-Apr-18 06:28 47.986054 5.772728 108 36967ft 490kts
15-Apr-18 06:29 47.986054 5.772728 108 36967ft 490kts
15-Apr-18 06:30 47.986054 5.772728 108 36967ft 490kts
15-Apr-18 06:31 47.986054 5.772728 108 36967ft 490kts
15-Apr-18 06:32 47.986054 5.772728 108 36967ft 490kts
15-Apr-18 06:33 47.986054 5.772728 108 36967ft 490kts
15-Apr-18 06:34 47.986054 5.772728 108 36967ft 490kts
15-Apr-18 06:35 47.986054 5.772728 108 36967ft 490kts
15-Apr-18 06:36 47.986054 5.772728 108 36967ft 490kts
15-Apr-18 06:37 47.986054 5.772728 108 36967ft 490kts
15-Apr-18 06:38 47.986054 5.772728 108 36967ft 490kts
15-Apr-18 06:39 47.986054 5.772728 108 36967ft 490kts
15-Apr-18 06:40 47.986054 5.772728 108 36967ft 490kts
15-Apr-18 06:41 47.986054 5.772728 108 36967ft 490kts
15-Apr-18 06:42 47.986054 5.772728 108 36967ft 490kts
15-Apr-18 06:43 47.986054 5.772728 108 36967ft 490kts
15-Apr-18 06:44 47.986054 5.772728 108 36967ft 490kts
15-Apr-18 06:45 47.986054 5.772728 108 36967ft 490kts
15-Apr-18 06:46 47.986054 5.772728 108 36967ft 490kts
15-Apr-18 06:47 47.986054 5.772728 108 36967ft 490kts
15-Apr-18 06:48 47.986054 5.772728 108 36967ft 490kts
15-Apr-18 06:49 47.986054 5.772728 108 36967ft 490kts
15-Apr-18 06:50 47.986054 5.772728 108 36967ft 490kts
15-Apr-18 06:51 47.986054 5.772728 108 36967ft 490kts
15-Apr-18 06:52 47.986054 5.772728 108 36967ft 490kts
15-Apr-18 06:53 47.986054 5.772728 108 36967ft 490kts
15-Apr-18 06:54 47.986054 5.772728 108 36967ft 490kts
15-Apr-18 06:55 47.986054 5.772728 108 36967ft 490kts
15-Apr-18 06:56 47.986054 5.772728 108 36967ft 490kts
15-Apr-18 06:57 47.986054 5.772728 108 36967ft 490kts
15-Apr-18 06:58 47.986054 5.772728 108 36967ft 490kts
15-Apr-18 06:59 47.986054 5.772728 108 36967ft 490kts
15-Apr-18 07:00 47.986054 5.772728 108 36967ft 490kts
15-Apr-18 07:01 47.986054 5.772728 108 36967ft 490kts
15-Apr-18 07:02 47.986054 5.772728 108 36967ft 490kts
15-Apr-18 07:03 47.986054 5.772728 108 36967ft 490kts
15-Apr-18 07:04 47.986054 5.772728 108 36967ft 490kts
15-Apr-18 07:05 47.986054 5.772728 108 36967ft 490kts
15-Apr-18 07:06 47.986054 5.772728 108 36967ft 490kts
15-Apr-18 07:07 47.986054 5.772728 108 36967ft 490kts
15-Apr-18 07:08 47.986054 5.772728 108 36967ft 490kts
15-Apr-18 07:09 47.986054 5.772728 108 36967ft 490kts
15-Apr-18 07:10 47.986054 5.772728 108 36967ft 490kts
15-Apr-18 07:11 47.986054 5.772728 108 36967ft 490kts
15-Apr-18 07:12 47.986054 5.772728 108 36967ft 490kts
15-Apr-18 07:13 47.986054 5.772728 108 36967ft 490kts
15-Apr-18 07:14 47.986054 5.772728 108 36967ft 490kts
15-Apr-18 07:15 47.986054 5.772728 108 36967ft 490kts
15-Apr-18 07:16 47.986054 5.772728 108 36967ft 490kts
15-Apr-18 07:17 47.986054 5.772728 108 36967ft 490kts
15-Apr-18 07:18 47.986054 5.772728 108 36967ft 490kts
15-Apr-18 07:19 47.986054 5.772728 108 36967ft 490kts
15-Apr-18 07:20 47.986054 5.772728 108 36967ft 490kts
15-Apr-18 07:21 47.986054 5.772728 108 36967ft 490kts
15-Apr-18 07:22 47.986054 5.772728 108 36967ft 490kts
15-Apr-18 07:23 47.986054 5.772728 108 36967ft 490kts
15-Apr-18 07:24 47.986054 5.772728 108 36967ft 490kts
15-Apr-18 07:25 47.986054 5.772728 108 36967ft 490kts
15-Apr-18 07:26 47.986054 5.772728 108 36967ft 490kts
15-Apr-18 07:27 47.986054 5.772728 108 36967ft 490kts
15-Apr-18 07:28 47.986054 5.772728 108 36967ft 490kts
15-Apr-18 07:29 47.986054 5.772728 108 36967ft 490kts
15-Apr-18 07:30 47.986054 5.772728 108 36967ft 490kts
15-Apr-18 07:31 47.986054 5.772728 108 36967ft 490kts
15-Apr-18 07:32 47.986054 5.772728 108 36967ft 490kts
15-Apr-18 07:33 47.986054 5.772728 108 36967ft 490kts
15-Apr-18 07:34 47.986054 5.772728 108 36967ft 490kts
15-Apr-18 07:35 47.986054 5.772728 108 36967ft 490kts
15-Apr-18 07:36 47.986054 5.772728 108 36967ft 490kts
15-Apr-18 07:37 47.986054 5.772728 108 36967ft 490kts
15-Apr-18 07:38 47.986054 5.772728 108 36967ft 490kts
15-Apr-18 07:39 47.986054 5.772728 108 36967ft 490kts
15-Apr-18 07:40 47.986054 5.772728 108 36967ft 490kts
15-Apr-18 07:41 47.986054 5.772728 108 36967ft 490kts
15-Apr-18 07:42 47.986054 5.772728 108 36967ft 490kts
15-Apr-18 07:43 47.986054 5.772728 108 36967ft 490kts
15-Apr-18 07:44 47.986054 5.772728 108 36967ft 490kts
15-Apr-18 07:45 47.986054 5.772728 108 36967ft 490kts
15-Apr-18 07:46 47.986054 5.772728 108 36967ft 490kts
15-Apr-18 07:47 47.986054 5.772728 108 36967ft 490kts
15-Apr-18 07:48 47.986054 5.772728 108 36967ft 490kts
15-Apr-18 07:49 47.986054 5.772728 108 36967ft 490kts
15-Apr-18 07:50 47.986054 5.772728 108 36967ft 490kts
15-Apr-18 07:51 47.986054 5.772728 108 36967ft 490kts
15-Apr-18 07:52 47.986054 5.772728 108 36967ft 490kts
15-Apr-18 07:53 47.986054 5.772728 108 36967ft 490kts
15-Apr-18 07:54 47.986054 5.772728 108 36967ft 490kts
15-Apr-18 07:55 47.986054 5.772728 108 36967ft 490kts
15-Apr-18 07:56 47.986054 5.772728 108 36967ft 490kts
15-Apr-18 07:57 47.986054 5.772728 108 36967ft 490kts
15-Apr-18 07:58 47.986054 5.772728 108 36967ft 490kts
15-Apr-18 07:59 47.986054 5.772728 108 36967ft 490kts
15-Apr-18 08:00 47.986054 5.772728 108 36967ft 490kts
15-Apr-18 08:01 47.986054 5.772728 108 36967ft 490kts
15-Apr-18 08:02 47.986054 5.772728 108 36967ft 490kts
15-Apr-18 08:03 47.986054 5.772728 108 36967ft 490kts
15-Apr-18 08:04 47.986054 5.772728 108 36967ft 490kts
15-Apr-18 08:05 47.986054 5.772728 108 36967ft 490kts
15-Apr-18 08:06 47.986054 5.772728 108 36967ft 490kts
15-Apr-18 08:07 47.986054 5.772728 108 36967ft 490kts
15-Apr-18 08:08 47.986054 5.772728 108 36967ft 490kts
15-Apr-18 08:09 47.986054 5.772728 108 36967ft 490kts
15-Apr-18 08:10 47.986054 5.772728 108 36967ft 490kts
15-Apr-18 08:11 47.986054 5.772728 108 36967ft 490kts
15-Apr-18 08:12 47.986054 5.772728 108 36967ft 490kts
15-Apr-18 08:13 47.986054 5.772728 108 36967ft 490kts
15-Apr-18 08:14 47.986054 5.772728 108 36967ft 490kts
15-Apr-18 08:15 47.986054 5.772728 108 36967ft 490kts
15-Apr-18 08:16 47.986054 5.772728 108 36967ft 490kts
15-Apr-18 08:17 47.986054 5.772728 108 36967ft 490kts
15-Apr-18 08:18 47.955016 5.928997 109 36923ft 490kts
15-Apr-18 08:19 47.916313 6.122279 110 35946ft 480kts
15-Apr-18 08:20 47.879215 6.313430 109 33461ft 477kts
15-Apr-18 08:21 47.840987 6.500991 110 31137ft 469kts
15-Apr-18 08:22 47.803561 6.683213 110 29169ft 453kts
15-Apr-18 08:23 47.773593 6.831136 110 27543ft 440kts
15-Apr-18 08:24 47.732024 7.029919 111 25288ft 424kts
15-Apr-18 08:25 47.697466 7.193980 111 23388ft 411kts
15-Apr-18 08:26 47.663875 7.353967 111 21524ft 399kts
15-Apr-18 08:27 47.630817 7.508591 111 19670ft 389kts
15-Apr-18 08:28 47.595398 7.659837 113 19320ft 391kts
15-Apr-18 08:29 47.559932 7.811307 112 17330ft 385kts
15-Apr-18 08:30 47.524850 7.958659 112 15347ft 376kts
15-Apr-18 08:31 47.490558 8.072634 121 13735ft 349kts
15-Apr-18 08:32 47.442656 8.189455 123 12129ft 318kts
15-Apr-18 08:33 47.397521 8.296372 122 10531ft 297kts
15-Apr-18 08:34 47.355388 8.398118 121 8992ft 281kts
15-Apr-18 08:35 47.313700 8.491710 134 7603ft 266kts
15-Apr-18 08:36 47.255841 8.550448 145 6360ft 241kts
15-Apr-18 08:37 47.209952 8.609989 100 5979ft 217kts
15-Apr-18 08:38 47.250075 8.665568 21 5791ft 222kts
15-Apr-18 08:39 47.306156 8.660643 324 4948ft 205kts
15-Apr-18 08:40 47.350771 8.621882 333 3773ft 165kts
15-Apr-18 08:41 47.388844 8.595658 335 2861ft 145kts
15-Apr-18 08:42 47.425205 8.570800 333 1994ft 134kts
15-Apr-18 08:43 47.460391 8.546496 333 1432ft 142kts
15-Apr-18 08:44 47.470078 8.542429 133 1429ft 24kts
15-Apr-18 08:45 47.463461 8.547935 105 1429ft 25kts

Navigation Log

Ident Type
Flight plan parsing failed, navigation log unavailable